GQPA/ATR METAR and TAF weather

Enter ICAO airport designator
Station Type Date Time Source
GQPA METAR 2022/06/26 15:00 UTC NOAA

GQPA 261500Z 02010KT 7000 NSC 38/10 Q1012


Station Type Date Time Source
GQPA Decoded METAR 2022/06/26 15:00 UTC NOAA

Atar, Mauritania (GQPA) 20-31N 013-04W 224M
Jun 26, 2022 - 11:00 AM EDT / 2022.06.26 1500 UTC
Wind: from the NNE (020 degrees) at 12 MPH (10 KT):0
Visibility: 4 mile(s):0
Temperature: 100 F (38 C)
Heat index: 96.8 F (36.0 C):1
Dew Point: 50 F (10 C)
Relative Humidity: 18%
Pressure (altimeter): 29.88 in. Hg (1012 hPa)
ob: GQPA 261500Z 02010KT 7000 NSC 38/10 Q1012
cycle: 15

Station Type Date Time Source
GQPA TAF UTC NOAA

Error!

Example: see airport list